sensor_id;sensor_type;location;lat;lon;timestamp;P1;durP1;ratioP1;P2;durP2;ratioP2
1651;SDS011;823;49.028;8.454;2023-02-15T00:03:05;47.40;;;15.63;;
1651;SDS011;823;49.028;8.454;2023-02-15T00:08:06;42.70;;;14.55;;
1651;SDS011;823;49.028;8.454;2023-02-15T00:13:06;46.23;;;14.77;;
1651;SDS011;823;49.028;8.454;2023-02-15T00:18:06;47.35;;;16.13;;
1651;SDS011;823;49.028;8.454;2023-02-15T00:23:07;60.37;;;17.30;;
1651;SDS011;823;49.028;8.454;2023-02-15T00:28:07;48.50;;;18.00;;
1651;SDS011;823;49.028;8.454;2023-02-15T00:33:07;50.67;;;16.70;;
1651;SDS011;823;49.028;8.454;2023-02-15T00:38:08;53.97;;;17.08;;
1651;SDS011;823;49.028;8.454;2023-02-15T00:43:08;52.65;;;16.75;;
1651;SDS011;823;49.028;8.454;2023-02-15T00:48:08;57.33;;;18.17;;
1651;SDS011;823;49.028;8.454;2023-02-15T00:53:09;54.40;;;15.50;;
1651;SDS011;823;49.028;8.454;2023-02-15T00:58:09;55.13;;;17.63;;
1651;SDS011;823;49.028;8.454;2023-02-15T01:03:11;51.97;;;15.90;;
1651;SDS011;823;49.028;8.454;2023-02-15T01:08:13;57.77;;;17.97;;
1651;SDS011;823;49.028;8.454;2023-02-15T01:13:14;57.03;;;17.20;;
1651;SDS011;823;49.028;8.454;2023-02-15T01:18:15;55.57;;;17.53;;
1651;SDS011;823;49.028;8.454;2023-02-15T01:23:17;70.90;;;18.07;;
1651;SDS011;823;49.028;8.454;2023-02-15T01:28:18;81.50;;;18.57;;
1651;SDS011;823;49.028;8.454;2023-02-15T01:33:18;57.17;;;19.10;;
1651;SDS011;823;49.028;8.454;2023-02-15T01:38:18;61.40;;;18.23;;
1651;SDS011;823;49.028;8.454;2023-02-15T01:43:18;53.37;;;16.87;;
1651;SDS011;823;49.028;8.454;2023-02-15T01:48:20;56.63;;;18.50;;
1651;SDS011;823;49.028;8.454;2023-02-15T01:53:32;49.70;;;16.50;;
1651;SDS011;823;49.028;8.454;2023-02-15T01:58:38;52.60;;;16.87;;
1651;SDS011;823;49.028;8.454;2023-02-15T02:03:42;44.27;;;14.57;;
1651;SDS011;823;49.028;8.454;2023-02-15T02:08:43;40.70;;;14.10;;
1651;SDS011;823;49.028;8.454;2023-02-15T02:13:44;60.67;;;16.97;;
1651;SDS011;823;49.028;8.454;2023-02-15T02:35:01;43.50;;;16.70;;
1651;SDS011;823;49.028;8.454;2023-02-15T02:45:20;43.23;;;13.97;;
1651;SDS011;823;49.028;8.454;2023-02-15T02:50:28;35.20;;;13.27;;
1651;SDS011;823;49.028;8.454;2023-02-15T03:00:53;52.10;;;15.27;;
1651;SDS011;823;49.028;8.454;2023-02-15T03:05:59;37.27;;;13.93;;
1651;SDS011;823;49.028;8.454;2023-02-15T03:11:03;44.60;;;15.43;;
1651;SDS011;823;49.028;8.454;2023-02-15T03:16:04;51.10;;;15.00;;
1651;SDS011;823;49.028;8.454;2023-02-15T03:21:29;44.07;;;15.20;;
1651;SDS011;823;49.028;8.454;2023-02-15T03:26:34;56.17;;;14.87;;
1651;SDS011;823;49.028;8.454;2023-02-15T03:31:37;49.50;;;15.37;;
1651;SDS011;823;49.028;8.454;2023-02-15T03:36:51;41.50;;;14.13;;
1651;SDS011;823;49.028;8.454;2023-02-15T03:41:58;36.50;;;13.50;;
1651;SDS011;823;49.028;8.454;2023-02-15T03:47:08;39.27;;;14.83;;
1651;SDS011;823;49.028;8.454;2023-02-15T03:52:14;35.23;;;14.30;;
1651;SDS011;823;49.028;8.454;2023-02-15T04:08:14;42.27;;;15.00;;
1651;SDS011;823;49.028;8.454;2023-02-15T04:13:15;36.10;;;13.27;;
1651;SDS011;823;49.028;8.454;2023-02-15T04:18:15;34.97;;;13.27;;
1651;SDS011;823;49.028;8.454;2023-02-15T04:23:15;55.40;;;16.25;;
1651;SDS011;823;49.028;8.454;2023-02-15T04:28:34;43.23;;;14.07;;
1651;SDS011;823;49.028;8.454;2023-02-15T04:33:35;32.72;;;13.23;;
1651;SDS011;823;49.028;8.454;2023-02-15T04:38:35;59.20;;;13.50;;
1651;SDS011;823;49.028;8.454;2023-02-15T04:43:36;36.55;;;14.40;;
1651;SDS011;823;49.028;8.454;2023-02-15T04:48:36;46.88;;;15.00;;
1651;SDS011;823;49.028;8.454;2023-02-15T04:53:36;36.50;;;13.73;;
1651;SDS011;823;49.028;8.454;2023-02-15T04:58:37;39.03;;;12.50;;
1651;SDS011;823;49.028;8.454;2023-02-15T05:03:40;35.27;;;12.40;;
1651;SDS011;823;49.028;8.454;2023-02-15T05:08:41;42.20;;;13.63;;
1651;SDS011;823;49.028;8.454;2023-02-15T05:13:41;32.17;;;13.57;;
1651;SDS011;823;49.028;8.454;2023-02-15T05:18:42;31.63;;;11.90;;
1651;SDS011;823;49.028;8.454;2023-02-15T05:23:42;31.57;;;12.77;;
1651;SDS011;823;49.028;8.454;2023-02-15T05:28:42;37.67;;;13.23;;
1651;SDS011;823;49.028;8.454;2023-02-15T05:33:43;39.28;;;13.50;;
1651;SDS011;823;49.028;8.454;2023-02-15T05:38:44;37.50;;;13.70;;
1651;SDS011;823;49.028;8.454;2023-02-15T05:43:44;34.70;;;13.93;;
1651;SDS011;823;49.028;8.454;2023-02-15T05:48:45;36.13;;;11.63;;
1651;SDS011;823;49.028;8.454;2023-02-15T05:53:45;35.80;;;10.45;;
1651;SDS011;823;49.028;8.454;2023-02-15T05:58:46;30.20;;;11.27;;
1651;SDS011;823;49.028;8.454;2023-02-15T06:03:46;29.70;;;12.40;;
1651;SDS011;823;49.028;8.454;2023-02-15T06:08:46;28.57;;;11.63;;
1651;SDS011;823;49.028;8.454;2023-02-15T06:13:47;36.40;;;12.60;;
1651;SDS011;823;49.028;8.454;2023-02-15T06:18:47;28.37;;;11.27;;
1651;SDS011;823;49.028;8.454;2023-02-15T06:23:48;32.50;;;13.47;;
1651;SDS011;823;49.028;8.454;2023-02-15T06:28:48;28.27;;;10.98;;
1651;SDS011;823;49.028;8.454;2023-02-15T06:33:48;33.35;;;11.93;;
1651;SDS011;823;49.028;8.454;2023-02-15T06:38:49;31.23;;;11.87;;
1651;SDS011;823;49.028;8.454;2023-02-15T06:43:49;27.13;;;11.05;;
1651;SDS011;823;49.028;8.454;2023-02-15T06:48:50;35.17;;;12.90;;
1651;SDS011;823;49.028;8.454;2023-02-15T06:53:50;37.97;;;12.18;;
1651;SDS011;823;49.028;8.454;2023-02-15T06:58:50;43.78;;;12.57;;
1651;SDS011;823;49.028;8.454;2023-02-15T07:03:52;41.80;;;13.10;;
1651;SDS011;823;49.028;8.454;2023-02-15T07:08:52;35.22;;;11.85;;
1651;SDS011;823;49.028;8.454;2023-02-15T07:13:53;43.13;;;12.40;;
1651;SDS011;823;49.028;8.454;2023-02-15T07:18:53;28.53;;;10.97;;
1651;SDS011;823;49.028;8.454;2023-02-15T07:23:55;32.88;;;11.68;;
1651;SDS011;823;49.028;8.454;2023-02-15T07:28:59;32.93;;;13.93;;
1651;SDS011;823;49.028;8.454;2023-02-15T07:33:59;43.80;;;14.53;;
1651;SDS011;823;49.028;8.454;2023-02-15T07:39:00;37.47;;;12.80;;
1651;SDS011;823;49.028;8.454;2023-02-15T07:44:00;38.67;;;14.40;;
1651;SDS011;823;49.028;8.454;2023-02-15T07:49:00;35.40;;;13.40;;
1651;SDS011;823;49.028;8.454;2023-02-15T07:54:00;42.47;;;12.85;;
1651;SDS011;823;49.028;8.454;2023-02-15T07:59:01;38.55;;;14.70;;
1651;SDS011;823;49.028;8.454;2023-02-15T08:04:03;31.57;;;11.63;;
1651;SDS011;823;49.028;8.454;2023-02-15T08:09:06;47.27;;;13.23;;
1651;SDS011;823;49.028;8.454;2023-02-15T08:14:26;37.43;;;12.10;;
1651;SDS011;823;49.028;8.454;2023-02-15T08:19:31;35.17;;;13.17;;
1651;SDS011;823;49.028;8.454;2023-02-15T08:24:33;45.20;;;12.87;;
1651;SDS011;823;49.028;8.454;2023-02-15T08:29:37;33.60;;;11.53;;
1651;SDS011;823;49.028;8.454;2023-02-15T08:34:38;28.13;;;10.90;;
1651;SDS011;823;49.028;8.454;2023-02-15T08:39:39;32.67;;;12.07;;
1651;SDS011;823;49.028;8.454;2023-02-15T08:44:40;38.43;;;12.53;;
1651;SDS011;823;49.028;8.454;2023-02-15T08:49:40;36.55;;;11.70;;
1651;SDS011;823;49.028;8.454;2023-02-15T08:54:41;37.88;;;12.45;;
1651;SDS011;823;49.028;8.454;2023-02-15T08:59:41;36.67;;;12.70;;
1651;SDS011;823;49.028;8.454;2023-02-15T09:04:41;36.92;;;12.35;;
1651;SDS011;823;49.028;8.454;2023-02-15T09:09:41;47.58;;;13.38;;
1651;SDS011;823;49.028;8.454;2023-02-15T09:14:42;45.72;;;14.10;;
1651;SDS011;823;49.028;8.454;2023-02-15T09:19:42;31.33;;;11.35;;
1651;SDS011;823;49.028;8.454;2023-02-15T09:24:42;39.42;;;12.35;;
1651;SDS011;823;49.028;8.454;2023-02-15T09:29:43;33.83;;;11.60;;
1651;SDS011;823;49.028;8.454;2023-02-15T09:34:43;44.63;;;13.95;;
1651;SDS011;823;49.028;8.454;2023-02-15T09:39:43;39.03;;;13.83;;
1651;SDS011;823;49.028;8.454;2023-02-15T09:50:12;33.83;;;12.57;;
1651;SDS011;823;49.028;8.454;2023-02-15T10:00:52;41.23;;;12.93;;
1651;SDS011;823;49.028;8.454;2023-02-15T10:06:05;39.83;;;13.03;;
1651;SDS011;823;49.028;8.454;2023-02-15T10:11:22;38.57;;;12.30;;
1651;SDS011;823;49.028;8.454;2023-02-15T10:16:42;44.23;;;13.80;;
1651;SDS011;823;49.028;8.454;2023-02-15T10:22:02;33.30;;;12.23;;
1651;SDS011;823;49.028;8.454;2023-02-15T10:27:07;41.17;;;14.20;;
1651;SDS011;823;49.028;8.454;2023-02-15T10:32:25;44.03;;;14.90;;
1651;SDS011;823;49.028;8.454;2023-02-15T10:37:44;48.13;;;15.97;;
1651;SDS011;823;49.028;8.454;2023-02-15T10:48:01;47.43;;;15.63;;
1651;SDS011;823;49.028;8.454;2023-02-15T10:53:20;43.37;;;15.27;;
1651;SDS011;823;49.028;8.454;2023-02-15T10:58:28;43.10;;;15.37;;
1651;SDS011;823;49.028;8.454;2023-02-15T11:08:52;44.70;;;15.40;;
1651;SDS011;823;49.028;8.454;2023-02-15T11:14:05;43.17;;;15.43;;
1651;SDS011;823;49.028;8.454;2023-02-15T11:19:17;43.77;;;15.47;;
1651;SDS011;823;49.028;8.454;2023-02-15T11:24:24;52.30;;;18.37;;
1651;SDS011;823;49.028;8.454;2023-02-15T11:29:40;46.97;;;17.97;;
1651;SDS011;823;49.028;8.454;2023-02-15T11:40:17;39.93;;;14.50;;
1651;SDS011;823;49.028;8.454;2023-02-15T11:45:25;41.77;;;16.67;;
1651;SDS011;823;49.028;8.454;2023-02-15T11:50:31;40.53;;;14.50;;
1651;SDS011;823;49.028;8.454;2023-02-15T11:55:32;32.63;;;14.70;;
1651;SDS011;823;49.028;8.454;2023-02-15T12:00:45;32.43;;;13.00;;
1651;SDS011;823;49.028;8.454;2023-02-15T12:05:47;45.30;;;15.90;;
1651;SDS011;823;49.028;8.454;2023-02-15T12:10:58;40.93;;;14.40;;
1651;SDS011;823;49.028;8.454;2023-02-15T12:16:06;34.23;;;14.80;;
1651;SDS011;823;49.028;8.454;2023-02-15T12:21:12;45.67;;;16.70;;
1651;SDS011;823;49.028;8.454;2023-02-15T12:26:22;42.03;;;14.80;;
1651;SDS011;823;49.028;8.454;2023-02-15T12:31:25;39.13;;;14.20;;
1651;SDS011;823;49.028;8.454;2023-02-15T12:36:42;41.97;;;14.80;;
1651;SDS011;823;49.028;8.454;2023-02-15T12:47:05;37.90;;;14.33;;
1651;SDS011;823;49.028;8.454;2023-02-15T12:57:31;40.23;;;17.60;;
1651;SDS011;823;49.028;8.454;2023-02-15T13:02:41;36.40;;;14.87;;
1651;SDS011;823;49.028;8.454;2023-02-15T13:07:56;39.07;;;15.40;;
1651;SDS011;823;49.028;8.454;2023-02-15T13:13:00;34.63;;;14.50;;
1651;SDS011;823;49.028;8.454;2023-02-15T13:18:03;32.90;;;14.63;;
1651;SDS011;823;49.028;8.454;2023-02-15T13:23:08;36.67;;;13.93;;
1651;SDS011;823;49.028;8.454;2023-02-15T13:28:22;34.47;;;12.90;;
1651;SDS011;823;49.028;8.454;2023-02-15T13:33:30;30.43;;;13.17;;
1651;SDS011;823;49.028;8.454;2023-02-15T13:43:52;28.10;;;13.60;;
1651;SDS011;823;49.028;8.454;2023-02-15T13:49:09;28.10;;;13.73;;
1651;SDS011;823;49.028;8.454;2023-02-15T14:10:34;37.37;;;13.10;;
1651;SDS011;823;49.028;8.454;2023-02-15T14:15:48;28.03;;;14.17;;
1651;SDS011;823;49.028;8.454;2023-02-15T14:31:28;31.27;;;14.57;;
1651;SDS011;823;49.028;8.454;2023-02-15T14:36:33;32.20;;;13.37;;
1651;SDS011;823;49.028;8.454;2023-02-15T14:41:46;36.60;;;13.70;;
1651;SDS011;823;49.028;8.454;2023-02-15T14:46:55;31.10;;;13.37;;
1651;SDS011;823;49.028;8.454;2023-02-15T14:52:05;29.80;;;12.27;;
1651;SDS011;823;49.028;8.454;2023-02-15T15:02:12;28.80;;;13.53;;
1651;SDS011;823;49.028;8.454;2023-02-15T15:07:19;44.57;;;14.10;;
1651;SDS011;823;49.028;8.454;2023-02-15T15:22:31;30.10;;;13.83;;
1651;SDS011;823;49.028;8.454;2023-02-15T15:27:46;34.57;;;14.23;;
1651;SDS011;823;49.028;8.454;2023-02-15T15:48:41;37.50;;;16.10;;
1651;SDS011;823;49.028;8.454;2023-02-15T15:53:43;36.10;;;15.07;;
1651;SDS011;823;49.028;8.454;2023-02-15T15:58:55;37.73;;;16.90;;
1651;SDS011;823;49.028;8.454;2023-02-15T16:03:58;30.70;;;14.07;;
1651;SDS011;823;49.028;8.454;2023-02-15T16:09:13;26.00;;;14.50;;
1651;SDS011;823;49.028;8.454;2023-02-15T16:14:25;35.20;;;13.57;;
1651;SDS011;823;49.028;8.454;2023-02-15T16:19:32;29.50;;;13.20;;
1651;SDS011;823;49.028;8.454;2023-02-15T16:24:48;38.30;;;13.97;;
1651;SDS011;823;49.028;8.454;2023-02-15T16:35:26;40.20;;;15.93;;
1651;SDS011;823;49.028;8.454;2023-02-15T16:45:40;35.20;;;15.37;;
1651;SDS011;823;49.028;8.454;2023-02-15T16:50:40;34.90;;;15.67;;
1651;SDS011;823;49.028;8.454;2023-02-15T16:55:49;35.90;;;14.53;;
1651;SDS011;823;49.028;8.454;2023-02-15T17:00:55;36.93;;;15.57;;
1651;SDS011;823;49.028;8.454;2023-02-15T17:05:59;31.73;;;14.03;;
1651;SDS011;823;49.028;8.454;2023-02-15T17:11:05;33.20;;;13.97;;
1651;SDS011;823;49.028;8.454;2023-02-15T17:16:36;36.63;;;13.47;;
1651;SDS011;823;49.028;8.454;2023-02-15T17:21:57;44.83;;;16.50;;
1651;SDS011;823;49.028;8.454;2023-02-15T17:27:00;35.23;;;12.10;;
1651;SDS011;823;49.028;8.454;2023-02-15T17:32:05;43.57;;;15.37;;
1651;SDS011;823;49.028;8.454;2023-02-15T17:42:42;36.87;;;14.87;;
1651;SDS011;823;49.028;8.454;2023-02-15T17:47:43;41.03;;;15.13;;
1651;SDS011;823;49.028;8.454;2023-02-15T17:52:45;40.73;;;15.87;;
1651;SDS011;823;49.028;8.454;2023-02-15T17:57:46;49.63;;;16.57;;
1651;SDS011;823;49.028;8.454;2023-02-15T18:02:47;46.07;;;17.20;;
1651;SDS011;823;49.028;8.454;2023-02-15T18:08:12;42.60;;;17.10;;
1651;SDS011;823;49.028;8.454;2023-02-15T18:13:33;51.70;;;17.27;;
1651;SDS011;823;49.028;8.454;2023-02-15T18:18:33;41.97;;;16.33;;
1651;SDS011;823;49.028;8.454;2023-02-15T18:23:34;40.87;;;18.50;;
1651;SDS011;823;49.028;8.454;2023-02-15T18:28:34;44.55;;;16.58;;
1651;SDS011;823;49.028;8.454;2023-02-15T18:33:35;54.58;;;19.20;;
1651;SDS011;823;49.028;8.454;2023-02-15T18:38:39;44.43;;;17.77;;
1651;SDS011;823;49.028;8.454;2023-02-15T18:43:39;54.30;;;18.73;;
1651;SDS011;823;49.028;8.454;2023-02-15T18:48:39;50.30;;;17.05;;
1651;SDS011;823;49.028;8.454;2023-02-15T18:53:40;45.80;;;18.70;;
1651;SDS011;823;49.028;8.454;2023-02-15T18:58:40;48.47;;;18.13;;
1651;SDS011;823;49.028;8.454;2023-02-15T19:03:45;47.30;;;16.80;;
1651;SDS011;823;49.028;8.454;2023-02-15T19:08:47;43.93;;;15.60;;
1651;SDS011;823;49.028;8.454;2023-02-15T19:13:50;50.10;;;16.83;;
1651;SDS011;823;49.028;8.454;2023-02-15T19:18:51;51.17;;;17.00;;
1651;SDS011;823;49.028;8.454;2023-02-15T19:24:02;45.47;;;17.20;;
1651;SDS011;823;49.028;8.454;2023-02-15T19:29:06;49.37;;;19.07;;
1651;SDS011;823;49.028;8.454;2023-02-15T19:34:12;61.17;;;23.40;;
1651;SDS011;823;49.028;8.454;2023-02-15T19:39:25;62.43;;;23.33;;
1651;SDS011;823;49.028;8.454;2023-02-15T19:44:27;54.80;;;22.30;;
1651;SDS011;823;49.028;8.454;2023-02-15T19:49:28;47.58;;;20.52;;
1651;SDS011;823;49.028;8.454;2023-02-15T19:54:29;56.93;;;19.70;;
1651;SDS011;823;49.028;8.454;2023-02-15T19:59:33;49.67;;;18.10;;
1651;SDS011;823;49.028;8.454;2023-02-15T20:04:33;46.93;;;17.77;;
1651;SDS011;823;49.028;8.454;2023-02-15T20:09:34;52.03;;;17.10;;
1651;SDS011;823;49.028;8.454;2023-02-15T20:14:36;60.77;;;18.67;;
1651;SDS011;823;49.028;8.454;2023-02-15T20:19:37;47.27;;;18.60;;
1651;SDS011;823;49.028;8.454;2023-02-15T20:24:39;45.17;;;18.80;;
1651;SDS011;823;49.028;8.454;2023-02-15T20:29:39;53.27;;;18.43;;
1651;SDS011;823;49.028;8.454;2023-02-15T20:34:39;39.23;;;17.63;;
1651;SDS011;823;49.028;8.454;2023-02-15T20:39:40;55.92;;;17.90;;
1651;SDS011;823;49.028;8.454;2023-02-15T20:44:40;52.95;;;18.95;;
1651;SDS011;823;49.028;8.454;2023-02-15T20:49:40;47.65;;;17.48;;
1651;SDS011;823;49.028;8.454;2023-02-15T20:54:41;44.00;;;17.47;;
1651;SDS011;823;49.028;8.454;2023-02-15T20:59:41;48.67;;;17.77;;
1651;SDS011;823;49.028;8.454;2023-02-15T21:04:41;51.70;;;20.17;;
1651;SDS011;823;49.028;8.454;2023-02-15T21:09:42;58.23;;;19.27;;
1651;SDS011;823;49.028;8.454;2023-02-15T21:14:43;56.17;;;22.10;;
1651;SDS011;823;49.028;8.454;2023-02-15T21:19:44;65.13;;;19.30;;
1651;SDS011;823;49.028;8.454;2023-02-15T21:24:48;84.50;;;23.60;;
1651;SDS011;823;49.028;8.454;2023-02-15T21:29:50;45.63;;;16.10;;
1651;SDS011;823;49.028;8.454;2023-02-15T21:34:51;51.47;;;17.05;;
1651;SDS011;823;49.028;8.454;2023-02-15T21:39:51;60.73;;;16.13;;
1651;SDS011;823;49.028;8.454;2023-02-15T21:44:51;44.57;;;14.87;;
1651;SDS011;823;49.028;8.454;2023-02-15T21:50:11;60.53;;;14.10;;
1651;SDS011;823;49.028;8.454;2023-02-15T21:55:32;34.87;;;14.03;;
1651;SDS011;823;49.028;8.454;2023-02-15T22:00:32;41.53;;;15.55;;
1651;SDS011;823;49.028;8.454;2023-02-15T22:05:33;42.42;;;15.00;;
1651;SDS011;823;49.028;8.454;2023-02-15T22:10:33;48.42;;;16.77;;
1651;SDS011;823;49.028;8.454;2023-02-15T22:15:34;39.47;;;16.50;;
1651;SDS011;823;49.028;8.454;2023-02-15T22:20:35;68.03;;;22.37;;
1651;SDS011;823;49.028;8.454;2023-02-15T22:25:36;46.17;;;14.95;;
1651;SDS011;823;49.028;8.454;2023-02-15T22:30:36;43.80;;;16.27;;
1651;SDS011;823;49.028;8.454;2023-02-15T22:35:36;38.67;;;14.43;;
1651;SDS011;823;49.028;8.454;2023-02-15T22:40:37;32.00;;;12.60;;
1651;SDS011;823;49.028;8.454;2023-02-15T22:45:38;40.37;;;14.50;;
1651;SDS011;823;49.028;8.454;2023-02-15T22:50:39;49.78;;;14.90;;
1651;SDS011;823;49.028;8.454;2023-02-15T22:55:39;29.67;;;11.63;;
1651;SDS011;823;49.028;8.454;2023-02-15T23:00:40;35.87;;;13.33;;
1651;SDS011;823;49.028;8.454;2023-02-15T23:05:40;35.53;;;12.97;;
1651;SDS011;823;49.028;8.454;2023-02-15T23:10:41;36.65;;;15.00;;
1651;SDS011;823;49.028;8.454;2023-02-15T23:15:44;37.00;;;14.80;;
1651;SDS011;823;49.028;8.454;2023-02-15T23:20:49;46.60;;;14.80;;
1651;SDS011;823;49.028;8.454;2023-02-15T23:25:52;35.83;;;13.70;;
1651;SDS011;823;49.028;8.454;2023-02-15T23:30:52;46.57;;;15.83;;
1651;SDS011;823;49.028;8.454;2023-02-15T23:35:53;41.13;;;15.50;;
1651;SDS011;823;49.028;8.454;2023-02-15T23:41:02;35.90;;;14.60;;
1651;SDS011;823;49.028;8.454;2023-02-15T23:46:26;35.67;;;13.03;;
1651;SDS011;823;49.028;8.454;2023-02-15T23:51:29;42.50;;;14.00;;
1651;SDS011;823;49.028;8.454;2023-02-15T23:56:30;42.70;;;13.93;;
